sensor_id;sensor_type;location;lat;lon;timestamp;P1;durP1;ratioP1;P2;durP2;ratioP2
77513;SDS011;66626;48.872;9.084;2023-11-19T00:01:22;4.35;;;1.88;;
77513;SDS011;66626;48.872;9.084;2023-11-19T00:03:48;3.67;;;1.50;;
77513;SDS011;66626;48.872;9.084;2023-11-19T00:06:14;3.33;;;1.55;;
77513;SDS011;66626;48.872;9.084;2023-11-19T00:08:39;3.97;;;1.63;;
77513;SDS011;66626;48.872;9.084;2023-11-19T00:11:05;3.65;;;1.33;;
77513;SDS011;66626;48.872;9.084;2023-11-19T00:13:30;4.22;;;1.70;;
77513;SDS011;66626;48.872;9.084;2023-11-19T00:15:55;4.53;;;1.65;;
77513;SDS011;66626;48.872;9.084;2023-11-19T00:18:21;2.85;;;1.17;;
77513;SDS011;66626;48.872;9.084;2023-11-19T00:20:47;3.50;;;1.63;;
77513;SDS011;66626;48.872;9.084;2023-11-19T00:23:12;4.10;;;1.90;;
77513;SDS011;66626;48.872;9.084;2023-11-19T00:25:37;3.20;;;1.25;;
77513;SDS011;66626;48.872;9.084;2023-11-19T00:28:03;4.85;;;1.52;;
77513;SDS011;66626;48.872;9.084;2023-11-19T00:30:29;3.40;;;1.73;;
77513;SDS011;66626;48.872;9.084;2023-11-19T00:32:56;3.25;;;1.42;;
77513;SDS011;66626;48.872;9.084;2023-11-19T00:35:21;3.55;;;1.60;;
77513;SDS011;66626;48.872;9.084;2023-11-19T00:37:49;4.15;;;1.40;;
77513;SDS011;66626;48.872;9.084;2023-11-19T00:40:15;5.28;;;1.58;;
77513;SDS011;66626;48.872;9.084;2023-11-19T00:42:43;4.97;;;1.40;;
77513;SDS011;66626;48.872;9.084;2023-11-19T00:45:08;3.45;;;1.23;;
77513;SDS011;66626;48.872;9.084;2023-11-19T00:47:35;3.33;;;1.50;;
77513;SDS011;66626;48.872;9.084;2023-11-19T00:50:01;3.45;;;1.65;;
77513;SDS011;66626;48.872;9.084;2023-11-19T00:52:27;3.55;;;1.42;;
77513;SDS011;66626;48.872;9.084;2023-11-19T00:54:52;4.13;;;1.25;;
77513;SDS011;66626;48.872;9.084;2023-11-19T00:57:17;3.83;;;1.20;;
77513;SDS011;66626;48.872;9.084;2023-11-19T00:59:43;3.00;;;1.17;;
77513;SDS011;66626;48.872;9.084;2023-11-19T01:02:08;1.30;;;0.70;;
77513;SDS011;66626;48.872;9.084;2023-11-19T01:04:34;2.08;;;0.80;;
77513;SDS011;66626;48.872;9.084;2023-11-19T01:07:01;2.35;;;0.90;;
77513;SDS011;66626;48.872;9.084;2023-11-19T01:09:26;2.25;;;0.80;;
77513;SDS011;66626;48.872;9.084;2023-11-19T01:11:53;1.73;;;0.70;;
77513;SDS011;66626;48.872;9.084;2023-11-19T01:14:18;1.75;;;0.50;;
77513;SDS011;66626;48.872;9.084;2023-11-19T01:16:44;2.13;;;0.85;;
77513;SDS011;66626;48.872;9.084;2023-11-19T01:19:09;0.93;;;0.50;;
77513;SDS011;66626;48.872;9.084;2023-11-19T01:21:35;4.95;;;0.80;;
77513;SDS011;66626;48.872;9.084;2023-11-19T01:24:01;1.13;;;0.50;;
77513;SDS011;66626;48.872;9.084;2023-11-19T01:26:28;1.35;;;0.43;;
77513;SDS011;66626;48.872;9.084;2023-11-19T01:28:53;0.63;;;0.28;;
77513;SDS011;66626;48.872;9.084;2023-11-19T01:31:18;0.88;;;0.70;;
77513;SDS011;66626;48.872;9.084;2023-11-19T01:33:44;1.52;;;0.88;;
77513;SDS011;66626;48.872;9.084;2023-11-19T01:36:12;0.75;;;0.30;;
77513;SDS011;66626;48.872;9.084;2023-11-19T01:38:38;0.50;;;0.28;;
77513;SDS011;66626;48.872;9.084;2023-11-19T01:41:03;1.40;;;0.40;;
77513;SDS011;66626;48.872;9.084;2023-11-19T01:43:32;0.73;;;0.40;;
77513;SDS011;66626;48.872;9.084;2023-11-19T01:45:58;0.47;;;0.22;;
77513;SDS011;66626;48.872;9.084;2023-11-19T01:48:23;1.00;;;0.45;;
77513;SDS011;66626;48.872;9.084;2023-11-19T01:50:49;0.28;;;0.20;;
77513;SDS011;66626;48.872;9.084;2023-11-19T01:53:14;4.38;;;1.67;;
77513;SDS011;66626;48.872;9.084;2023-11-19T01:55:40;3.03;;;0.90;;
77513;SDS011;66626;48.872;9.084;2023-11-19T01:58:05;1.85;;;0.55;;
77513;SDS011;66626;48.872;9.084;2023-11-19T02:00:32;0.98;;;0.30;;
77513;SDS011;66626;48.872;9.084;2023-11-19T02:02:58;1.25;;;0.47;;
77513;SDS011;66626;48.872;9.084;2023-11-19T02:05:23;1.40;;;0.25;;
77513;SDS011;66626;48.872;9.084;2023-11-19T02:07:49;0.47;;;0.17;;
77513;SDS011;66626;48.872;9.084;2023-11-19T02:10:16;1.38;;;0.40;;
77513;SDS011;66626;48.872;9.084;2023-11-19T02:12:44;0.30;;;0.10;;
77513;SDS011;66626;48.872;9.084;2023-11-19T02:15:09;0.10;;;0.10;;
77513;SDS011;66626;48.872;9.084;2023-11-19T02:17:35;0.35;;;0.10;;
77513;SDS011;66626;48.872;9.084;2023-11-19T02:20:03;0.63;;;0.38;;
77513;SDS011;66626;48.872;9.084;2023-11-19T02:22:31;0.55;;;0.20;;
77513;SDS011;66626;48.872;9.084;2023-11-19T02:24:59;0.30;;;0.10;;
77513;SDS011;66626;48.872;9.084;2023-11-19T02:30:13;0.43;;;0.20;;
77513;SDS011;66626;48.872;9.084;2023-11-19T02:32:40;0.50;;;0.20;;
77513;SDS011;66626;48.872;9.084;2023-11-19T02:35:06;0.32;;;0.20;;
77513;SDS011;66626;48.872;9.084;2023-11-19T02:37:33;1.02;;;0.40;;
77513;SDS011;66626;48.872;9.084;2023-11-19T02:39:59;1.45;;;0.35;;
77513;SDS011;66626;48.872;9.084;2023-11-19T02:42:34;0.63;;;0.25;;
77513;SDS011;66626;48.872;9.084;2023-11-19T02:45:00;0.55;;;0.17;;
77513;SDS011;66626;48.872;9.084;2023-11-19T02:47:26;1.55;;;0.20;;
77513;SDS011;66626;48.872;9.084;2023-11-19T02:49:55;0.70;;;0.22;;
77513;SDS011;66626;48.872;9.084;2023-11-19T02:52:20;0.32;;;0.10;;
77513;SDS011;66626;48.872;9.084;2023-11-19T02:54:46;1.38;;;0.32;;
77513;SDS011;66626;48.872;9.084;2023-11-19T02:57:11;1.33;;;0.50;;
77513;SDS011;66626;48.872;9.084;2023-11-19T02:59:38;1.58;;;0.60;;
77513;SDS011;66626;48.872;9.084;2023-11-19T03:02:06;0.77;;;0.32;;
77513;SDS011;66626;48.872;9.084;2023-11-19T03:04:35;1.80;;;0.60;;
77513;SDS011;66626;48.872;9.084;2023-11-19T03:07:00;1.40;;;0.40;;
77513;SDS011;66626;48.872;9.084;2023-11-19T03:09:27;1.08;;;0.40;;
77513;SDS011;66626;48.872;9.084;2023-11-19T03:11:54;0.30;;;0.30;;
77513;SDS011;66626;48.872;9.084;2023-11-19T03:14:22;2.22;;;0.50;;
77513;SDS011;66626;48.872;9.084;2023-11-19T03:16:48;0.77;;;0.40;;
77513;SDS011;66626;48.872;9.084;2023-11-19T03:19:13;2.08;;;0.60;;
77513;SDS011;66626;48.872;9.084;2023-11-19T03:21:38;0.73;;;0.40;;
77513;SDS011;66626;48.872;9.084;2023-11-19T03:24:04;0.43;;;0.20;;
77513;SDS011;66626;48.872;9.084;2023-11-19T03:26:29;1.05;;;0.52;;
77513;SDS011;66626;48.872;9.084;2023-11-19T03:28:55;0.73;;;0.40;;
77513;SDS011;66626;48.872;9.084;2023-11-19T03:31:22;1.35;;;0.55;;
77513;SDS011;66626;48.872;9.084;2023-11-19T03:33:47;3.63;;;1.30;;
77513;SDS011;66626;48.872;9.084;2023-11-19T03:36:12;1.83;;;0.50;;
77513;SDS011;66626;48.872;9.084;2023-11-19T03:38:38;1.45;;;0.60;;
77513;SDS011;66626;48.872;9.084;2023-11-19T03:41:10;0.60;;;0.30;;
77513;SDS011;66626;48.872;9.084;2023-11-19T03:43:36;1.20;;;0.40;;
77513;SDS011;66626;48.872;9.084;2023-11-19T03:46:02;1.92;;;0.30;;
77513;SDS011;66626;48.872;9.084;2023-11-19T03:48:27;0.55;;;0.20;;
77513;SDS011;66626;48.872;9.084;2023-11-19T03:50:52;1.05;;;0.30;;
77513;SDS011;66626;48.872;9.084;2023-11-19T03:53:18;0.75;;;0.50;;
77513;SDS011;66626;48.872;9.084;2023-11-19T03:55:43;3.70;;;0.93;;
77513;SDS011;66626;48.872;9.084;2023-11-19T03:58:09;1.38;;;0.65;;
77513;SDS011;66626;48.872;9.084;2023-11-19T04:00:34;0.38;;;0.20;;
77513;SDS011;66626;48.872;9.084;2023-11-19T04:02:59;0.35;;;0.20;;
77513;SDS011;66626;48.872;9.084;2023-11-19T04:05:25;0.15;;;0.08;;
77513;SDS011;66626;48.872;9.084;2023-11-19T04:07:50;0.47;;;0.20;;
77513;SDS011;66626;48.872;9.084;2023-11-19T04:10:16;0.22;;;0.20;;
77513;SDS011;66626;48.872;9.084;2023-11-19T04:12:42;0.32;;;0.10;;
77513;SDS011;66626;48.872;9.084;2023-11-19T04:15:07;0.20;;;0.10;;
77513;SDS011;66626;48.872;9.084;2023-11-19T04:17:33;0.70;;;0.28;;
77513;SDS011;66626;48.872;9.084;2023-11-19T04:19:59;0.38;;;0.15;;
77513;SDS011;66626;48.872;9.084;2023-11-19T04:22:25;0.30;;;0.13;;
77513;SDS011;66626;48.872;9.084;2023-11-19T04:24:51;2.30;;;0.35;;
77513;SDS011;66626;48.872;9.084;2023-11-19T04:27:16;2.20;;;0.65;;
77513;SDS011;66626;48.872;9.084;2023-11-19T04:29:41;2.22;;;1.10;;
77513;SDS011;66626;48.872;9.084;2023-11-19T04:32:07;0.00;;;0.00;;
77513;SDS011;66626;48.872;9.084;2023-11-19T04:34:32;0.52;;;0.30;;
77513;SDS011;66626;48.872;9.084;2023-11-19T04:36:58;0.35;;;0.10;;
77513;SDS011;66626;48.872;9.084;2023-11-19T04:39:27;0.60;;;0.30;;
77513;SDS011;66626;48.872;9.084;2023-11-19T04:41:52;0.17;;;0.10;;
77513;SDS011;66626;48.872;9.084;2023-11-19T04:44:18;0.75;;;0.17;;
77513;SDS011;66626;48.872;9.084;2023-11-19T04:46:43;0.57;;;0.30;;
77513;SDS011;66626;48.872;9.084;2023-11-19T04:49:09;1.50;;;0.50;;
77513;SDS011;66626;48.872;9.084;2023-11-19T04:51:41;1.10;;;0.57;;
77513;SDS011;66626;48.872;9.084;2023-11-19T04:54:07;1.10;;;0.30;;
77513;SDS011;66626;48.872;9.084;2023-11-19T04:56:33;0.03;;;0.00;;
77513;SDS011;66626;48.872;9.084;2023-11-19T04:58:59;1.15;;;0.28;;
77513;SDS011;66626;48.872;9.084;2023-11-19T05:01:24;0.38;;;0.30;;
77513;SDS011;66626;48.872;9.084;2023-11-19T05:03:50;0.95;;;0.32;;
77513;SDS011;66626;48.872;9.084;2023-11-19T05:06:16;0.32;;;0.20;;
77513;SDS011;66626;48.872;9.084;2023-11-19T05:08:42;0.57;;;0.17;;
77513;SDS011;66626;48.872;9.084;2023-11-19T05:11:07;0.20;;;0.17;;
77513;SDS011;66626;48.872;9.084;2023-11-19T05:13:32;0.17;;;0.10;;
77513;SDS011;66626;48.872;9.084;2023-11-19T05:15:58;0.73;;;0.17;;
77513;SDS011;66626;48.872;9.084;2023-11-19T05:18:24;0.32;;;0.20;;
77513;SDS011;66626;48.872;9.084;2023-11-19T05:20:49;0.20;;;0.10;;
77513;SDS011;66626;48.872;9.084;2023-11-19T05:23:15;0.75;;;0.30;;
77513;SDS011;66626;48.872;9.084;2023-11-19T05:25:40;1.08;;;0.20;;
77513;SDS011;66626;48.872;9.084;2023-11-19T05:28:05;0.52;;;0.10;;
77513;SDS011;66626;48.872;9.084;2023-11-19T05:30:31;0.05;;;0.05;;
77513;SDS011;66626;48.872;9.084;2023-11-19T05:32:56;0.30;;;0.20;;
77513;SDS011;66626;48.872;9.084;2023-11-19T05:35:22;0.68;;;0.10;;
77513;SDS011;66626;48.872;9.084;2023-11-19T05:37:47;0.75;;;0.40;;
77513;SDS011;66626;48.872;9.084;2023-11-19T05:40:12;0.55;;;0.13;;
77513;SDS011;66626;48.872;9.084;2023-11-19T05:42:41;0.38;;;0.17;;
77513;SDS011;66626;48.872;9.084;2023-11-19T05:45:07;0.10;;;0.10;;
77513;SDS011;66626;48.872;9.084;2023-11-19T05:47:33;2.83;;;0.25;;
77513;SDS011;66626;48.872;9.084;2023-11-19T05:49:59;0.32;;;0.30;;
77513;SDS011;66626;48.872;9.084;2023-11-19T05:52:24;0.22;;;0.20;;
77513;SDS011;66626;48.872;9.084;2023-11-19T05:54:49;2.13;;;0.28;;
77513;SDS011;66626;48.872;9.084;2023-11-19T05:57:17;1.20;;;0.43;;
77513;SDS011;66626;48.872;9.084;2023-11-19T05:59:47;0.93;;;0.30;;
77513;SDS011;66626;48.872;9.084;2023-11-19T06:02:13;0.10;;;0.10;;
77513;SDS011;66626;48.872;9.084;2023-11-19T06:04:38;0.47;;;0.20;;
77513;SDS011;66626;48.872;9.084;2023-11-19T06:07:04;0.93;;;0.50;;
77513;SDS011;66626;48.872;9.084;2023-11-19T06:09:30;1.65;;;0.57;;
77513;SDS011;66626;48.872;9.084;2023-11-19T06:11:55;0.32;;;0.20;;
77513;SDS011;66626;48.872;9.084;2023-11-19T06:14:22;0.93;;;0.40;;
77513;SDS011;66626;48.872;9.084;2023-11-19T06:16:49;0.65;;;0.25;;
77513;SDS011;66626;48.872;9.084;2023-11-19T06:19:16;1.05;;;0.35;;
77513;SDS011;66626;48.872;9.084;2023-11-19T06:21:42;0.90;;;0.40;;
77513;SDS011;66626;48.872;9.084;2023-11-19T06:24:07;1.63;;;0.50;;
77513;SDS011;66626;48.872;9.084;2023-11-19T06:26:33;0.80;;;0.45;;
77513;SDS011;66626;48.872;9.084;2023-11-19T06:29:01;0.80;;;0.80;;
77513;SDS011;66626;48.872;9.084;2023-11-19T06:31:27;1.25;;;0.40;;
77513;SDS011;66626;48.872;9.084;2023-11-19T06:33:52;0.30;;;0.30;;
77513;SDS011;66626;48.872;9.084;2023-11-19T06:36:18;0.52;;;0.20;;
77513;SDS011;66626;48.872;9.084;2023-11-19T06:38:43;1.77;;;0.73;;
77513;SDS011;66626;48.872;9.084;2023-11-19T06:41:08;1.05;;;0.28;;
77513;SDS011;66626;48.872;9.084;2023-11-19T06:43:34;0.35;;;0.35;;
77513;SDS011;66626;48.872;9.084;2023-11-19T06:46:00;0.52;;;0.20;;
77513;SDS011;66626;48.872;9.084;2023-11-19T06:48:30;0.43;;;0.30;;
77513;SDS011;66626;48.872;9.084;2023-11-19T06:50:57;0.98;;;0.30;;
77513;SDS011;66626;48.872;9.084;2023-11-19T06:53:22;0.90;;;0.40;;
77513;SDS011;66626;48.872;9.084;2023-11-19T06:55:47;0.57;;;0.45;;
77513;SDS011;66626;48.872;9.084;2023-11-19T06:58:13;0.60;;;0.30;;
77513;SDS011;66626;48.872;9.084;2023-11-19T07:00:38;0.88;;;0.50;;
77513;SDS011;66626;48.872;9.084;2023-11-19T07:03:03;1.42;;;1.17;;
77513;SDS011;66626;48.872;9.084;2023-11-19T07:05:30;1.88;;;0.63;;
77513;SDS011;66626;48.872;9.084;2023-11-19T07:07:56;0.93;;;0.38;;
77513;SDS011;66626;48.872;9.084;2023-11-19T07:10:21;2.40;;;0.40;;
77513;SDS011;66626;48.872;9.084;2023-11-19T07:12:46;1.50;;;0.40;;
77513;SDS011;66626;48.872;9.084;2023-11-19T07:15:12;2.05;;;0.38;;
77513;SDS011;66626;48.872;9.084;2023-11-19T07:17:38;2.65;;;0.60;;
77513;SDS011;66626;48.872;9.084;2023-11-19T07:20:05;1.05;;;0.55;;
77513;SDS011;66626;48.872;9.084;2023-11-19T07:22:30;1.08;;;0.40;;
77513;SDS011;66626;48.872;9.084;2023-11-19T07:24:56;1.17;;;0.40;;
77513;SDS011;66626;48.872;9.084;2023-11-19T07:27:22;1.10;;;0.38;;
77513;SDS011;66626;48.872;9.084;2023-11-19T07:29:49;0.85;;;0.38;;
77513;SDS011;66626;48.872;9.084;2023-11-19T07:32:14;1.05;;;0.40;;
77513;SDS011;66626;48.872;9.084;2023-11-19T07:34:39;1.10;;;0.60;;
77513;SDS011;66626;48.872;9.084;2023-11-19T07:37:05;2.35;;;0.85;;
77513;SDS011;66626;48.872;9.084;2023-11-19T07:39:30;0.98;;;0.52;;
77513;SDS011;66626;48.872;9.084;2023-11-19T07:41:55;1.13;;;0.40;;
77513;SDS011;66626;48.872;9.084;2023-11-19T07:44:21;1.15;;;0.43;;
77513;SDS011;66626;48.872;9.084;2023-11-19T07:46:46;1.13;;;0.40;;
77513;SDS011;66626;48.872;9.084;2023-11-19T07:49:13;1.00;;;0.40;;
77513;SDS011;66626;48.872;9.084;2023-11-19T07:51:38;2.67;;;0.20;;
77513;SDS011;66626;48.872;9.084;2023-11-19T07:54:03;2.47;;;0.52;;
77513;SDS011;66626;48.872;9.084;2023-11-19T07:56:33;0.93;;;0.45;;
77513;SDS011;66626;48.872;9.084;2023-11-19T07:59:01;2.03;;;0.45;;
77513;SDS011;66626;48.872;9.084;2023-11-19T08:01:27;1.10;;;0.50;;
77513;SDS011;66626;48.872;9.084;2023-11-19T08:03:52;1.27;;;0.47;;
77513;SDS011;66626;48.872;9.084;2023-11-19T08:06:18;1.83;;;0.60;;
77513;SDS011;66626;48.872;9.084;2023-11-19T08:08:43;3.05;;;1.30;;
77513;SDS011;66626;48.872;9.084;2023-11-19T08:11:10;1.33;;;0.45;;
77513;SDS011;66626;48.872;9.084;2023-11-19T08:13:35;1.77;;;0.77;;
77513;SDS011;66626;48.872;9.084;2023-11-19T08:16:00;1.67;;;0.60;;
77513;SDS011;66626;48.872;9.084;2023-11-19T08:18:26;0.98;;;0.45;;
77513;SDS011;66626;48.872;9.084;2023-11-19T08:20:51;1.45;;;0.55;;
77513;SDS011;66626;48.872;9.084;2023-11-19T08:23:18;1.92;;;0.63;;
77513;SDS011;66626;48.872;9.084;2023-11-19T08:25:44;2.95;;;0.80;;
77513;SDS011;66626;48.872;9.084;2023-11-19T08:28:09;3.17;;;1.10;;
77513;SDS011;66626;48.872;9.084;2023-11-19T08:30:35;1.77;;;0.68;;
77513;SDS011;66626;48.872;9.084;2023-11-19T08:33:00;0.90;;;0.40;;
77513;SDS011;66626;48.872;9.084;2023-11-19T08:35:28;2.13;;;0.70;;
77513;SDS011;66626;48.872;9.084;2023-11-19T08:37:53;0.82;;;0.38;;
77513;SDS011;66626;48.872;9.084;2023-11-19T08:40:19;1.38;;;0.57;;
77513;SDS011;66626;48.872;9.084;2023-11-19T08:42:45;2.72;;;0.55;;
77513;SDS011;66626;48.872;9.084;2023-11-19T08:45:10;2.00;;;0.65;;
77513;SDS011;66626;48.872;9.084;2023-11-19T08:47:36;1.85;;;0.50;;
77513;SDS011;66626;48.872;9.084;2023-11-19T08:50:02;0.95;;;0.40;;
77513;SDS011;66626;48.872;9.084;2023-11-19T08:52:29;1.38;;;0.68;;
77513;SDS011;66626;48.872;9.084;2023-11-19T08:54:54;1.95;;;0.65;;
77513;SDS011;66626;48.872;9.084;2023-11-19T08:57:19;1.30;;;0.60;;
77513;SDS011;66626;48.872;9.084;2023-11-19T08:59:45;2.40;;;0.43;;
77513;SDS011;66626;48.872;9.084;2023-11-19T09:02:11;0.98;;;0.45;;
77513;SDS011;66626;48.872;9.084;2023-11-19T09:04:36;1.52;;;0.68;;
77513;SDS011;66626;48.872;9.084;2023-11-19T09:07:02;3.85;;;1.23;;
77513;SDS011;66626;48.872;9.084;2023-11-19T09:09:28;1.80;;;0.65;;
77513;SDS011;66626;48.872;9.084;2023-11-19T09:11:53;1.17;;;0.77;;
77513;SDS011;66626;48.872;9.084;2023-11-19T09:14:19;2.97;;;1.00;;
77513;SDS011;66626;48.872;9.084;2023-11-19T09:19:14;1.50;;;0.57;;
77513;SDS011;66626;48.872;9.084;2023-11-19T09:21:39;2.58;;;1.05;;
77513;SDS011;66626;48.872;9.084;2023-11-19T09:24:05;2.65;;;1.02;;
77513;SDS011;66626;48.872;9.084;2023-11-19T09:26:30;2.70;;;0.95;;
77513;SDS011;66626;48.872;9.084;2023-11-19T09:28:55;2.63;;;0.80;;
77513;SDS011;66626;48.872;9.084;2023-11-19T09:31:21;3.33;;;0.90;;
77513;SDS011;66626;48.872;9.084;2023-11-19T09:33:46;1.35;;;0.57;;
77513;SDS011;66626;48.872;9.084;2023-11-19T09:36:12;2.67;;;0.82;;
77513;SDS011;66626;48.872;9.084;2023-11-19T09:38:39;3.58;;;0.70;;
77513;SDS011;66626;48.872;9.084;2023-11-19T09:41:06;1.60;;;0.70;;
77513;SDS011;66626;48.872;9.084;2023-11-19T09:43:34;2.90;;;0.60;;
77513;SDS011;66626;48.872;9.084;2023-11-19T09:46:06;2.30;;;0.52;;
77513;SDS011;66626;48.872;9.084;2023-11-19T09:48:36;1.83;;;0.70;;
77513;SDS011;66626;48.872;9.084;2023-11-19T09:51:03;3.20;;;1.30;;
77513;SDS011;66626;48.872;9.084;2023-11-19T09:53:29;2.47;;;0.70;;
77513;SDS011;66626;48.872;9.084;2023-11-19T09:55:55;5.05;;;1.70;;
77513;SDS011;66626;48.872;9.084;2023-11-19T09:58:21;4.47;;;1.75;;
77513;SDS011;66626;48.872;9.084;2023-11-19T10:00:47;2.63;;;0.88;;
77513;SDS011;66626;48.872;9.084;2023-11-19T10:03:12;1.40;;;0.55;;
77513;SDS011;66626;48.872;9.084;2023-11-19T10:05:38;3.38;;;0.80;;
77513;SDS011;66626;48.872;9.084;2023-11-19T10:08:04;2.50;;;0.60;;
77513;SDS011;66626;48.872;9.084;2023-11-19T10:10:30;2.03;;;0.57;;
77513;SDS011;66626;48.872;9.084;2023-11-19T10:12:55;1.70;;;0.60;;
77513;SDS011;66626;48.872;9.084;2023-11-19T10:15:21;2.67;;;0.80;;
77513;SDS011;66626;48.872;9.084;2023-11-19T10:17:47;1.40;;;0.70;;
77513;SDS011;66626;48.872;9.084;2023-11-19T10:20:13;2.13;;;0.90;;
77513;SDS011;66626;48.872;9.084;2023-11-19T10:22:38;4.15;;;1.08;;
77513;SDS011;66626;48.872;9.084;2023-11-19T10:25:04;4.05;;;0.90;;
77513;SDS011;66626;48.872;9.084;2023-11-19T10:27:30;3.55;;;0.90;;
77513;SDS011;66626;48.872;9.084;2023-11-19T10:29:59;1.48;;;0.73;;
77513;SDS011;66626;48.872;9.084;2023-11-19T10:32:24;2.13;;;0.82;;
77513;SDS011;66626;48.872;9.084;2023-11-19T10:34:50;2.97;;;0.88;;
77513;SDS011;66626;48.872;9.084;2023-11-19T10:37:28;2.22;;;0.70;;
77513;SDS011;66626;48.872;9.084;2023-11-19T10:39:57;3.67;;;1.27;;
77513;SDS011;66626;48.872;9.084;2023-11-19T10:42:23;1.45;;;0.65;;
77513;SDS011;66626;48.872;9.084;2023-11-19T10:44:48;3.75;;;0.70;;
77513;SDS011;66626;48.872;9.084;2023-11-19T10:47:14;2.00;;;0.70;;
77513;SDS011;66626;48.872;9.084;2023-11-19T10:49:42;1.38;;;0.45;;
77513;SDS011;66626;48.872;9.084;2023-11-19T10:52:08;3.05;;;0.75;;
77513;SDS011;66626;48.872;9.084;2023-11-19T10:54:34;1.35;;;0.60;;
77513;SDS011;66626;48.872;9.084;2023-11-19T10:56:59;2.40;;;0.40;;
77513;SDS011;66626;48.872;9.084;2023-11-19T10:59:28;3.25;;;0.70;;
77513;SDS011;66626;48.872;9.084;2023-11-19T11:01:57;2.95;;;1.02;;
77513;SDS011;66626;48.872;9.084;2023-11-19T11:04:25;4.20;;;1.40;;
77513;SDS011;66626;48.872;9.084;2023-11-19T11:06:54;4.68;;;1.05;;
77513;SDS011;66626;48.872;9.084;2023-11-19T11:09:19;1.25;;;0.55;;
77513;SDS011;66626;48.872;9.084;2023-11-19T11:11:48;0.22;;;0.20;;
77513;SDS011;66626;48.872;9.084;2023-11-19T11:14:15;1.15;;;0.50;;
77513;SDS011;66626;48.872;9.084;2023-11-19T11:16:44;1.23;;;0.50;;
77513;SDS011;66626;48.872;9.084;2023-11-19T11:19:11;4.50;;;0.85;;
77513;SDS011;66626;48.872;9.084;2023-11-19T11:21:37;1.73;;;0.70;;
77513;SDS011;66626;48.872;9.084;2023-11-19T11:33:17;2.83;;;0.90;;
77513;SDS011;66626;48.872;9.084;2023-11-19T11:35:59;1.50;;;0.65;;
77513;SDS011;66626;48.872;9.084;2023-11-19T11:38:36;2.92;;;1.00;;
77513;SDS011;66626;48.872;9.084;2023-11-19T11:41:23;4.05;;;0.80;;
77513;SDS011;66626;48.872;9.084;2023-11-19T11:43:51;2.63;;;0.88;;
77513;SDS011;66626;48.872;9.084;2023-11-19T11:49:02;2.38;;;0.90;;
77513;SDS011;66626;48.872;9.084;2023-11-19T11:54:08;4.13;;;0.98;;
77513;SDS011;66626;48.872;9.084;2023-11-19T11:56:36;2.30;;;0.95;;
77513;SDS011;66626;48.872;9.084;2023-11-19T11:59:02;2.97;;;0.90;;
77513;SDS011;66626;48.872;9.084;2023-11-19T12:01:27;3.10;;;0.82;;
77513;SDS011;66626;48.872;9.084;2023-11-19T12:03:55;3.20;;;1.50;;
77513;SDS011;66626;48.872;9.084;2023-11-19T12:06:21;3.85;;;1.20;;
77513;SDS011;66626;48.872;9.084;2023-11-19T12:08:47;4.40;;;1.17;;
77513;SDS011;66626;48.872;9.084;2023-11-19T12:11:16;2.92;;;0.90;;
77513;SDS011;66626;48.872;9.084;2023-11-19T12:16:17;3.47;;;1.20;;
77513;SDS011;66626;48.872;9.084;2023-11-19T12:18:43;3.67;;;1.10;;
77513;SDS011;66626;48.872;9.084;2023-11-19T12:21:08;2.63;;;1.00;;
77513;SDS011;66626;48.872;9.084;2023-11-19T12:23:35;4.22;;;1.23;;
77513;SDS011;66626;48.872;9.084;2023-11-19T12:26:09;3.40;;;1.50;;
77513;SDS011;66626;48.872;9.084;2023-11-19T12:28:57;3.28;;;1.08;;
77513;SDS011;66626;48.872;9.084;2023-11-19T12:31:23;3.67;;;1.15;;
77513;SDS011;66626;48.872;9.084;2023-11-19T12:33:50;3.80;;;1.00;;
77513;SDS011;66626;48.872;9.084;2023-11-19T12:36:16;4.50;;;1.10;;
77513;SDS011;66626;48.872;9.084;2023-11-19T12:38:42;3.67;;;1.30;;
77513;SDS011;66626;48.872;9.084;2023-11-19T12:41:10;3.38;;;1.00;;
77513;SDS011;66626;48.872;9.084;2023-11-19T12:43:36;4.40;;;1.75;;
77513;SDS011;66626;48.872;9.084;2023-11-19T12:46:03;1.80;;;0.60;;
77513;SDS011;66626;48.872;9.084;2023-11-19T12:48:50;2.60;;;0.90;;
77513;SDS011;66626;48.872;9.084;2023-11-19T12:51:16;4.20;;;1.20;;
77513;SDS011;66626;48.872;9.084;2023-11-19T12:53:48;4.03;;;1.02;;
77513;SDS011;66626;48.872;9.084;2023-11-19T12:56:15;2.53;;;1.13;;
77513;SDS011;66626;48.872;9.084;2023-11-19T12:58:41;2.92;;;0.90;;
77513;SDS011;66626;48.872;9.084;2023-11-19T13:01:08;6.20;;;1.30;;
77513;SDS011;66626;48.872;9.084;2023-11-19T13:03:35;2.03;;;0.65;;
77513;SDS011;66626;48.872;9.084;2023-11-19T13:06:06;4.72;;;1.90;;
77513;SDS011;66626;48.872;9.084;2023-11-19T13:11:13;3.22;;;1.00;;
77513;SDS011;66626;48.872;9.084;2023-11-19T13:14:11;1.92;;;0.50;;
77513;SDS011;66626;48.872;9.084;2023-11-19T13:16:33;4.93;;;0.90;;
77513;SDS011;66626;48.872;9.084;2023-11-19T13:18:58;2.55;;;0.70;;
77513;SDS011;66626;48.872;9.084;2023-11-19T13:21:25;2.45;;;0.90;;
77513;SDS011;66626;48.872;9.084;2023-11-19T13:23:50;4.00;;;1.00;;
77513;SDS011;66626;48.872;9.084;2023-11-19T13:26:15;3.42;;;0.70;;
77513;SDS011;66626;48.872;9.084;2023-11-19T13:28:41;1.85;;;0.60;;
77513;SDS011;66626;48.872;9.084;2023-11-19T13:31:06;2.50;;;0.80;;
77513;SDS011;66626;48.872;9.084;2023-11-19T13:33:32;2.35;;;0.80;;
77513;SDS011;66626;48.872;9.084;2023-11-19T13:35:57;2.47;;;0.80;;
77513;SDS011;66626;48.872;9.084;2023-11-19T13:38:23;2.63;;;0.70;;
77513;SDS011;66626;48.872;9.084;2023-11-19T13:40:49;3.53;;;1.20;;
77513;SDS011;66626;48.872;9.084;2023-11-19T13:43:14;3.53;;;1.00;;
77513;SDS011;66626;48.872;9.084;2023-11-19T13:45:40;0.85;;;0.50;;
77513;SDS011;66626;48.872;9.084;2023-11-19T13:48:08;4.38;;;1.35;;
77513;SDS011;66626;48.872;9.084;2023-11-19T13:50:34;4.55;;;1.60;;
77513;SDS011;66626;48.872;9.084;2023-11-19T13:53:00;3.60;;;1.33;;
77513;SDS011;66626;48.872;9.084;2023-11-19T13:55:25;2.28;;;0.70;;
77513;SDS011;66626;48.872;9.084;2023-11-19T13:57:51;3.70;;;1.50;;
77513;SDS011;66626;48.872;9.084;2023-11-19T14:00:16;1.85;;;0.70;;
77513;SDS011;66626;48.872;9.084;2023-11-19T14:02:44;1.08;;;0.50;;
77513;SDS011;66626;48.872;9.084;2023-11-19T14:05:12;1.52;;;0.52;;
77513;SDS011;66626;48.872;9.084;2023-11-19T14:07:38;2.17;;;0.77;;
77513;SDS011;66626;48.872;9.084;2023-11-19T14:10:04;2.78;;;0.90;;
77513;SDS011;66626;48.872;9.084;2023-11-19T14:12:34;4.05;;;1.10;;
77513;SDS011;66626;48.872;9.084;2023-11-19T14:15:00;2.47;;;0.93;;
77513;SDS011;66626;48.872;9.084;2023-11-19T14:17:25;4.07;;;1.13;;
77513;SDS011;66626;48.872;9.084;2023-11-19T14:19:51;3.25;;;0.77;;
77513;SDS011;66626;48.872;9.084;2023-11-19T14:22:27;3.47;;;0.90;;
77513;SDS011;66626;48.872;9.084;2023-11-19T14:25:14;2.85;;;0.88;;
77513;SDS011;66626;48.872;9.084;2023-11-19T14:27:43;3.55;;;1.10;;
77513;SDS011;66626;48.872;9.084;2023-11-19T14:30:10;3.33;;;1.00;;
77513;SDS011;66626;48.872;9.084;2023-11-19T14:32:36;3.08;;;1.13;;
77513;SDS011;66626;48.872;9.084;2023-11-19T14:35:02;4.82;;;1.63;;
77513;SDS011;66626;48.872;9.084;2023-11-19T14:37:29;4.55;;;1.08;;
77513;SDS011;66626;48.872;9.084;2023-11-19T14:39:55;1.15;;;0.57;;
77513;SDS011;66626;48.872;9.084;2023-11-19T14:42:21;3.38;;;1.10;;
77513;SDS011;66626;48.872;9.084;2023-11-19T14:44:47;3.65;;;1.30;;
77513;SDS011;66626;48.872;9.084;2023-11-19T14:47:13;2.60;;;1.40;;
77513;SDS011;66626;48.872;9.084;2023-11-19T14:49:38;3.85;;;1.60;;
77513;SDS011;66626;48.872;9.084;2023-11-19T14:52:04;2.42;;;1.02;;
77513;SDS011;66626;48.872;9.084;2023-11-19T14:54:30;3.70;;;1.35;;
77513;SDS011;66626;48.872;9.084;2023-11-19T14:56:55;2.90;;;1.20;;
77513;SDS011;66626;48.872;9.084;2023-11-19T14:59:21;5.45;;;0.70;;
77513;SDS011;66626;48.872;9.084;2023-11-19T15:01:46;2.35;;;0.90;;
77513;SDS011;66626;48.872;9.084;2023-11-19T15:04:12;3.17;;;0.80;;
77513;SDS011;66626;48.872;9.084;2023-11-19T15:06:37;2.10;;;0.68;;
77513;SDS011;66626;48.872;9.084;2023-11-19T15:09:03;1.98;;;0.70;;